Proctorville, North Carolina
Current Conditions -  °F | °C
As of 2:54 AM on Tuesday 27 Jan 2015 (Local Time) from KLBT Reporting Station
Overcast Overcast  
Wind Chill: 35°   Ceiling: 3200
Heat Index: 43°   Visibility: 10mi
Dew Point: 30°   Wind: 16mph
Humidity: 60%   Direction: 300°WNW
Pressure: 29.72"   Gusts: 21mph
Location:  34.48°N, 79.04°W
Report Text: KLBT 270754Z AUTO 30014G18KT 10SM OVC032 06/M01 A2972 RMK AO2 SLP063 T00611011
Loading
Personal Weather Stations






























Interactive Weather Map New forecast layout! Learn more

10-Day Weather Forecast

Advertisements
Track Severe Weather on mobile